createdAt,value
2023-03-28T00:01:14.971Z,2.40
2023-03-28T00:03:43.674Z,3.10
2023-03-28T00:06:16.687Z,2.80
2023-03-28T00:08:46.335Z,2.20
2023-03-28T00:11:20.021Z,2.50
2023-03-28T00:13:49.913Z,3.10
2023-03-28T00:16:20.174Z,2.70
2023-03-28T00:18:51.163Z,2.20
2023-03-28T00:21:24.010Z,2.50
2023-03-28T00:23:54.546Z,2.30
2023-03-28T00:26:26.844Z,3.00
2023-03-28T00:28:56.639Z,2.40
2023-03-28T00:31:27.425Z,2.20
2023-03-28T00:33:56.484Z,3.07
2023-03-28T00:36:29.853Z,2.67
2023-03-28T00:38:59.149Z,1.83
2023-03-28T00:41:31.508Z,2.40
2023-03-28T00:44:00.898Z,3.17
2023-03-28T00:46:33.795Z,2.87
2023-03-28T00:49:05.946Z,2.80
2023-03-28T00:51:38.926Z,2.70
2023-03-28T00:54:12.258Z,3.03
2023-03-28T00:56:46.002Z,3.10
2023-03-28T00:59:18.404Z,3.33
2023-03-28T01:01:49.351Z,2.80
2023-03-28T01:04:20.657Z,2.70
2023-03-28T01:06:54.997Z,2.40
2023-03-28T01:09:25.040Z,3.00
2023-03-28T01:11:55.822Z,3.30
2023-03-28T01:14:27.934Z,3.60
2023-03-28T01:16:58.283Z,3.03
2023-03-28T01:19:44.085Z,3.47
2023-03-28T01:22:34.864Z,4.10
2023-03-28T01:25:29.300Z,4.73
2023-03-28T01:28:03.593Z,4.70
2023-03-28T01:30:57.312Z,3.67
2023-03-28T01:33:54.911Z,3.30
2023-03-28T01:36:54.062Z,3.90
2023-03-28T01:39:29.379Z,5.43
2023-03-28T01:42:08.151Z,3.53
2023-03-28T01:44:44.439Z,4.53
2023-03-28T01:47:18.175Z,2.70
2023-03-28T01:49:53.450Z,3.23
2023-03-28T01:52:33.686Z,3.40
2023-03-28T01:55:10.363Z,4.20
2023-03-28T01:57:47.484Z,3.80
2023-03-28T02:00:21.473Z,3.90
2023-03-28T02:02:54.969Z,4.40
2023-03-28T02:05:25.511Z,3.37
2023-03-28T02:07:56.312Z,4.30
2023-03-28T02:10:27.732Z,4.93
2023-03-28T02:12:59.287Z,4.73
2023-03-28T02:15:29.754Z,6.27
2023-03-28T02:18:03.784Z,6.47
2023-03-28T02:20:36.519Z,6.90
2023-03-28T02:23:11.145Z,7.27
2023-03-28T02:25:40.676Z,6.57
2023-03-28T02:28:12.830Z,6.60
2023-03-28T02:30:41.553Z,6.17
2023-03-28T02:33:40.615Z,6.40
2023-03-28T02:36:23.506Z,6.63
2023-03-28T02:39:03.112Z,5.50
2023-03-28T02:41:44.218Z,5.27
2023-03-28T02:44:31.731Z,5.30
2023-03-28T02:47:11.976Z,6.10
2023-03-28T02:49:50.327Z,6.00
2023-03-28T02:52:37.222Z,6.10
2023-03-28T02:55:17.148Z,6.10
2023-03-28T02:57:52.906Z,5.20
2023-03-28T03:00:22.042Z,5.90
2023-03-28T03:02:52.767Z,5.87
2023-03-28T03:05:22.209Z,5.20
2023-03-28T03:07:51.701Z,5.53
2023-03-28T03:10:22.218Z,5.63
2023-03-28T03:12:51.138Z,5.23
2023-03-28T03:15:20.036Z,5.70
2023-03-28T03:17:48.982Z,5.27
2023-03-28T03:20:17.729Z,4.90
2023-03-28T03:22:47.972Z,5.10
2023-03-28T03:25:16.823Z,5.07
2023-03-28T03:27:47.306Z,3.90
2023-03-28T03:30:16.343Z,4.97
2023-03-28T03:32:45.450Z,4.37
2023-03-28T03:35:14.258Z,3.53
2023-03-28T03:37:43.065Z,3.23
2023-03-28T03:40:13.093Z,3.10
2023-03-28T03:42:41.848Z,3.67
2023-03-28T03:45:13.686Z,3.73
2023-03-28T03:47:42.445Z,3.27
2023-03-28T03:50:11.904Z,2.30
2023-03-28T03:52:40.621Z,3.13
2023-03-28T03:55:10.257Z,2.40
2023-03-28T03:57:39.437Z,2.83
2023-03-28T04:00:12.346Z,2.70
2023-03-28T04:02:42.658Z,2.30
2023-03-28T04:05:13.146Z,2.00
2023-03-28T04:07:42.435Z,2.07
2023-03-28T04:10:12.031Z,2.07
2023-03-28T04:12:40.829Z,2.17
2023-03-28T04:15:11.668Z,2.33
2023-03-28T04:17:41.914Z,2.50
2023-03-28T04:20:13.849Z,2.70
2023-03-28T04:22:45.040Z,2.50
2023-03-28T04:25:15.149Z,2.47
2023-03-28T04:27:47.385Z,2.63
2023-03-28T04:30:18.307Z,2.40
2023-03-28T04:32:50.732Z,2.80
2023-03-28T04:35:19.586Z,2.17
2023-03-28T04:37:50.812Z,2.00
2023-03-28T04:40:19.588Z,2.03
2023-03-28T04:42:48.412Z,2.27
2023-03-28T04:45:19.116Z,1.97
2023-03-28T04:47:49.816Z,2.33
2023-03-28T04:50:18.930Z,2.40
2023-03-28T04:52:50.387Z,2.60
2023-03-28T04:55:20.286Z,2.10
2023-03-28T04:57:49.067Z,2.37
2023-03-28T05:00:19.380Z,3.10
2023-03-28T05:02:49.666Z,2.77
2023-03-28T05:05:18.617Z,3.20
2023-03-28T05:07:47.405Z,3.00
2023-03-28T05:10:16.704Z,2.87
2023-03-28T05:12:45.662Z,3.70
2023-03-28T05:15:22.928Z,3.37
2023-03-28T05:17:53.799Z,4.17
2023-03-28T05:20:22.836Z,2.33
2023-03-28T05:22:51.825Z,1.90
2023-03-28T05:25:22.168Z,1.80
2023-03-28T05:27:52.691Z,2.30
2023-03-28T05:30:22.572Z,2.30
2023-03-28T05:32:52.892Z,1.70
2023-03-28T05:35:21.917Z,1.77
2023-03-28T05:37:50.659Z,2.20
2023-03-28T05:40:19.633Z,1.70
2023-03-28T05:42:48.655Z,2.10
2023-03-28T05:45:28.033Z,2.10
2023-03-28T05:48:05.112Z,1.67
2023-03-28T05:50:34.220Z,1.80
2023-03-28T05:53:04.079Z,1.70
2023-03-28T05:55:33.803Z,1.80
2023-03-28T05:58:04.666Z,2.83
2023-03-28T06:00:34.779Z,2.73
2023-03-28T06:03:06.088Z,2.07
2023-03-28T06:05:35.437Z,2.13
2023-03-28T06:08:05.065Z,1.80
2023-03-28T06:10:33.915Z,2.23
2023-03-28T06:13:03.265Z,1.80
2023-03-28T06:15:31.969Z,1.70
2023-03-28T06:18:00.808Z,2.00
2023-03-28T06:20:31.398Z,2.03
2023-03-28T06:23:00.175Z,2.07
2023-03-28T06:25:28.971Z,1.67
2023-03-28T06:27:58.067Z,1.80
2023-03-28T06:30:27.310Z,1.50
2023-03-28T06:32:56.034Z,1.50
2023-03-28T06:35:26.392Z,1.73
2023-03-28T06:37:57.684Z,1.23
2023-03-28T06:40:28.064Z,1.90
2023-03-28T06:43:00.214Z,1.50
2023-03-28T06:45:30.017Z,1.70
2023-03-28T06:47:58.769Z,1.60
2023-03-28T06:50:27.541Z,2.30
2023-03-28T06:52:58.181Z,1.80
2023-03-28T06:55:27.276Z,1.60
2023-03-28T06:57:56.840Z,1.60
2023-03-28T07:00:27.426Z,2.60
2023-03-28T07:03:02.980Z,2.87
2023-03-28T07:05:35.373Z,2.37
2023-03-28T07:08:07.328Z,1.77
2023-03-28T07:10:38.736Z,2.83
2023-03-28T07:13:09.126Z,2.23
2023-03-28T07:15:38.095Z,2.90
2023-03-28T07:18:10.844Z,1.67
2023-03-28T07:20:41.556Z,2.50
2023-03-28T07:23:11.913Z,2.07
2023-03-28T07:25:41.077Z,1.67
2023-03-28T07:28:12.302Z,1.93
2023-03-28T07:30:44.091Z,2.50
2023-03-28T07:33:18.584Z,2.27
2023-03-28T07:35:54.464Z,1.90
2023-03-28T07:38:29.528Z,2.63
2023-03-28T07:41:05.507Z,2.10
2023-03-28T07:43:34.824Z,1.57
2023-03-28T07:46:06.933Z,1.57
2023-03-28T07:48:38.497Z,1.73
2023-03-28T07:51:08.060Z,1.67
2023-03-28T07:53:46.571Z,2.80
2023-03-28T07:56:15.775Z,2.07
2023-03-28T07:58:44.579Z,2.40
2023-03-28T08:01:14.464Z,2.23
2023-03-28T08:03:43.799Z,2.50
2023-03-28T08:06:28.783Z,2.67
2023-03-28T08:09:02.413Z,2.50
2023-03-28T08:11:32.187Z,2.30
2023-03-28T08:14:00.996Z,2.93
2023-03-28T08:16:30.157Z,2.57
2023-03-28T08:19:09.826Z,2.17
2023-03-28T08:21:40.666Z,2.87
2023-03-28T08:24:17.372Z,1.90
2023-03-28T08:26:52.403Z,2.40
2023-03-28T08:29:23.612Z,2.63
2023-03-28T08:31:52.621Z,1.80
2023-03-28T08:34:21.633Z,2.23
2023-03-28T08:36:50.423Z,2.53
2023-03-28T08:39:20.689Z,2.80
2023-03-28T08:42:14.183Z,1.93
2023-03-28T08:45:09.022Z,2.07
2023-03-28T08:47:50.297Z,1.73
2023-03-28T08:50:26.356Z,1.57
2023-03-28T08:52:57.058Z,2.10
2023-03-28T08:55:33.528Z,1.60
2023-03-28T08:58:07.333Z,1.60
2023-03-28T09:00:38.225Z,2.20
2023-03-28T09:03:14.129Z,1.90
2023-03-28T09:05:48.453Z,1.97
2023-03-28T09:08:46.678Z,1.50
2023-03-28T09:11:28.479Z,1.23
2023-03-28T09:14:11.775Z,1.43
2023-03-28T09:16:53.128Z,1.20
2023-03-28T09:19:47.785Z,1.37
2023-03-28T09:22:28.598Z,1.40
2023-03-28T09:25:11.381Z,1.60
2023-03-28T09:27:54.704Z,1.60
2023-03-28T09:30:27.540Z,2.10
2023-03-28T09:33:00.173Z,1.43
2023-03-28T09:35:32.514Z,1.80
2023-03-28T09:38:05.624Z,3.53
2023-03-28T09:40:36.850Z,2.90
2023-03-28T09:43:17.268Z,2.50
2023-03-28T09:45:55.242Z,2.23
2023-03-28T09:48:27.943Z,2.37
2023-03-28T09:50:58.822Z,1.87
2023-03-28T09:53:31.707Z,1.70
2023-03-28T09:56:05.592Z,1.90
2023-03-28T09:58:52.495Z,2.33
2023-03-28T10:01:43.921Z,2.47
2023-03-28T10:04:14.632Z,2.50
2023-03-28T10:06:45.148Z,2.23
2023-03-28T10:09:19.796Z,2.00
2023-03-28T10:11:55.745Z,2.20
2023-03-28T10:14:33.992Z,1.00
2023-03-28T10:17:09.010Z,2.07
2023-03-28T10:19:45.835Z,2.10
2023-03-28T10:22:25.731Z,2.20
2023-03-28T10:24:57.860Z,2.17
2023-03-28T10:27:39.631Z,1.43
2023-03-28T10:30:22.708Z,1.33
2023-03-28T10:33:11.952Z,1.37
2023-03-28T10:35:44.557Z,1.50
2023-03-28T10:38:20.402Z,1.13
2023-03-28T10:40:55.093Z,1.77
2023-03-28T10:43:24.292Z,1.67
2023-03-28T10:45:55.724Z,1.47
2023-03-28T10:48:29.872Z,2.00
2023-03-28T10:51:02.356Z,2.20
2023-03-28T10:53:42.752Z,1.97
2023-03-28T10:56:23.398Z,1.60
2023-03-28T10:59:03.888Z,1.60
2023-03-28T11:01:46.572Z,2.30
2023-03-28T11:04:28.864Z,1.60
2023-03-28T11:07:07.822Z,1.50
2023-03-28T11:09:43.489Z,1.50
2023-03-28T11:12:28.587Z,1.70
2023-03-28T11:15:07.172Z,1.80
2023-03-28T11:17:52.620Z,1.37
2023-03-28T11:20:55.700Z,1.20
2023-03-28T11:23:46.032Z,1.40
2023-03-28T11:26:18.359Z,1.50
2023-03-28T11:29:06.948Z,1.50
2023-03-28T11:31:40.546Z,1.10
2023-03-28T11:34:22.053Z,1.47
2023-03-28T11:36:55.833Z,2.20
2023-03-28T11:39:36.692Z,1.83
2023-03-28T11:42:11.658Z,1.30
2023-03-28T11:44:45.933Z,2.00
2023-03-28T11:47:19.811Z,1.10
2023-03-28T11:49:53.369Z,1.23
2023-03-28T11:52:28.712Z,1.10
2023-03-28T11:55:14.542Z,2.33
2023-03-28T11:57:54.783Z,1.53
2023-03-28T12:00:34.121Z,2.03
2023-03-28T12:03:14.330Z,1.63
2023-03-28T12:05:53.429Z,1.90
2023-03-28T12:08:33.953Z,1.90
2023-03-28T12:11:08.712Z,1.57
2023-03-28T12:13:46.770Z,1.20
2023-03-28T12:16:20.489Z,1.60
2023-03-28T12:18:52.294Z,1.43
2023-03-28T12:21:30.279Z,1.20
2023-03-28T12:24:08.690Z,1.87
2023-03-28T12:26:56.126Z,1.47
2023-03-28T12:29:30.941Z,4.83
2023-03-28T12:32:06.194Z,3.00
2023-03-28T12:34:44.033Z,4.63
2023-03-28T12:37:33.276Z,6.93
2023-03-28T12:40:13.153Z,10.00
2023-03-28T12:42:47.982Z,2.10
2023-03-28T12:45:22.463Z,3.23
2023-03-28T12:47:56.491Z,5.87
2023-03-28T12:50:30.783Z,5.73
2023-03-28T12:53:01.770Z,3.40
2023-03-28T12:55:54.896Z,10.37
2023-03-28T12:58:26.962Z,2.60
2023-03-28T13:01:20.215Z,3.33
2023-03-28T13:04:00.343Z,1.77
2023-03-28T13:06:42.778Z,1.37
2023-03-28T13:09:26.686Z,1.77
2023-03-28T13:12:08.942Z,1.47
2023-03-28T13:14:39.563Z,1.47
2023-03-28T13:17:21.996Z,2.33
2023-03-28T13:19:56.534Z,1.70
2023-03-28T13:22:33.860Z,2.47
2023-03-28T13:25:29.363Z,3.70
2023-03-28T13:28:01.449Z,3.70
2023-03-28T13:30:36.265Z,3.27
2023-03-28T13:33:19.678Z,3.57
2023-03-28T13:35:50.390Z,2.97
2023-03-28T13:38:47.435Z,3.97
2023-03-28T13:41:39.786Z,3.60
2023-03-28T13:44:14.857Z,11.80
2023-03-28T13:46:46.576Z,3.97
2023-03-28T13:49:20.438Z,6.07
2023-03-28T13:51:55.016Z,5.33
2023-03-28T13:54:24.616Z,11.80
2023-03-28T13:57:12.369Z,5.37
2023-03-28T13:59:48.466Z,10.87
2023-03-28T14:02:27.861Z,6.40
2023-03-28T14:05:15.736Z,6.87
2023-03-28T14:07:45.192Z,6.63
2023-03-28T14:10:32.020Z,4.37
2023-03-28T14:13:05.574Z,4.13
2023-03-28T14:15:39.316Z,3.67
2023-03-28T14:18:12.621Z,2.67
2023-03-28T14:20:42.781Z,4.03
2023-03-28T14:23:31.051Z,3.60
2023-03-28T14:26:02.091Z,3.07
2023-03-28T14:28:34.776Z,2.70
2023-03-28T14:31:05.418Z,4.70
2023-03-28T14:33:38.690Z,3.57
2023-03-28T14:36:11.859Z,3.40
2023-03-28T14:38:44.095Z,2.93
2023-03-28T14:41:21.721Z,2.43
2023-03-28T14:43:57.335Z,3.70
2023-03-28T14:46:29.706Z,3.60
2023-03-28T14:49:02.104Z,2.87
2023-03-28T14:51:41.382Z,2.30
2023-03-28T14:54:17.429Z,3.53
2023-03-28T14:56:48.333Z,2.70
2023-03-28T14:59:23.587Z,2.87
2023-03-28T15:01:53.966Z,2.63
2023-03-28T15:04:26.596Z,4.10
2023-03-28T15:06:56.934Z,2.40
2023-03-28T15:09:31.803Z,2.13
2023-03-28T15:12:06.981Z,2.60
2023-03-28T15:14:42.311Z,3.10
2023-03-28T15:17:15.371Z,3.37
2023-03-28T15:19:45.428Z,2.03
2023-03-28T15:22:21.198Z,2.13
2023-03-28T15:24:51.290Z,2.33
2023-03-28T15:27:32.113Z,2.30
2023-03-28T15:30:07.347Z,2.00
2023-03-28T15:32:37.205Z,1.80
2023-03-28T15:35:12.141Z,1.80
2023-03-28T15:37:46.702Z,2.60
2023-03-28T15:40:29.183Z,2.23
2023-03-28T15:43:00.125Z,2.37
2023-03-28T15:45:43.003Z,3.53
2023-03-28T15:48:20.979Z,3.40
2023-03-28T15:50:55.412Z,2.20
2023-03-28T15:53:30.568Z,2.13
2023-03-28T15:56:08.043Z,1.90
2023-03-28T15:58:42.252Z,2.20
2023-03-28T16:01:26.380Z,2.53
2023-03-28T16:04:33.933Z,2.67
2023-03-28T16:07:12.110Z,2.07
2023-03-28T16:09:43.527Z,2.17
2023-03-28T16:12:15.956Z,2.20
2023-03-28T16:14:52.998Z,1.97
2023-03-28T16:17:29.401Z,2.40
2023-03-28T16:20:00.462Z,2.63
2023-03-28T16:22:30.393Z,2.53
2023-03-28T16:24:59.340Z,2.27
2023-03-28T16:27:28.762Z,2.30
2023-03-28T16:29:57.836Z,1.77
2023-03-28T16:32:29.891Z,2.20
2023-03-28T16:34:59.146Z,1.97
2023-03-28T16:37:31.742Z,2.10
2023-03-28T16:40:03.946Z,1.90
2023-03-28T16:42:37.051Z,2.30
2023-03-28T16:45:13.028Z,1.60
2023-03-28T16:47:49.131Z,1.83
2023-03-28T16:50:19.728Z,1.80
2023-03-28T16:53:02.110Z,1.67
2023-03-28T16:55:32.552Z,2.40
2023-03-28T16:58:01.912Z,2.10
2023-03-28T17:00:31.889Z,5.37
2023-03-28T17:03:03.115Z,2.80
2023-03-28T17:05:33.705Z,4.90
2023-03-28T17:08:03.237Z,4.30
2023-03-28T17:10:32.991Z,3.27
2023-03-28T17:13:03.606Z,3.30
2023-03-28T17:15:33.558Z,4.30
2023-03-28T17:18:05.831Z,5.00
2023-03-28T17:20:35.834Z,5.00
2023-03-28T17:23:07.076Z,5.70
2023-03-28T17:25:54.411Z,6.30
2023-03-28T17:28:29.384Z,4.70
2023-03-28T17:31:05.191Z,5.20
2023-03-28T17:33:36.094Z,4.90
2023-03-28T17:36:21.796Z,5.30
2023-03-28T17:38:53.648Z,6.20
2023-03-28T17:41:31.207Z,8.93
2023-03-28T17:44:27.760Z,7.03
2023-03-28T17:47:00.418Z,6.50
2023-03-28T17:49:33.570Z,4.50
2023-03-28T17:52:27.025Z,8.07
2023-03-28T17:54:57.765Z,8.43
2023-03-28T17:57:29.943Z,7.90
2023-03-28T18:00:02.667Z,8.17
2023-03-28T18:02:35.584Z,11.00
2023-03-28T18:05:09.277Z,12.63
2023-03-28T18:07:40.725Z,14.63
2023-03-28T18:10:21.037Z,10.63
2023-03-28T18:12:59.096Z,7.77
2023-03-28T18:15:32.180Z,7.90
2023-03-28T18:18:03.564Z,9.00
2023-03-28T18:20:36.487Z,10.17
2023-03-28T18:23:14.116Z,22.30
2023-03-28T18:25:45.254Z,18.83
2023-03-28T18:28:20.577Z,7.00
2023-03-28T18:31:10.226Z,14.10
2023-03-28T18:33:41.786Z,12.77
2023-03-28T18:36:37.123Z,27.13
2023-03-28T18:39:09.643Z,17.27
2023-03-28T18:41:40.589Z,23.50
2023-03-28T18:44:16.175Z,20.80
2023-03-28T18:46:55.161Z,27.60
2023-03-28T18:49:28.149Z,20.07
2023-03-28T18:52:08.775Z,17.87
2023-03-28T18:54:46.934Z,17.47
2023-03-28T18:57:20.784Z,12.80
2023-03-28T19:03:22.520Z,11.30
2023-03-28T19:06:34.869Z,9.00
2023-03-28T19:09:13.830Z,10.67
2023-03-28T19:11:44.967Z,7.80
2023-03-28T19:14:23.910Z,12.97
2023-03-28T19:16:59.910Z,11.30
2023-03-28T19:19:42.989Z,13.40
2023-03-28T19:22:14.409Z,10.63
2023-03-28T19:24:47.340Z,11.33
2023-03-28T19:30:43.993Z,10.33
2023-03-28T19:33:21.175Z,8.87
2023-03-28T19:35:52.395Z,7.80
2023-03-28T19:38:24.525Z,8.20
2023-03-28T19:41:09.235Z,8.87
2023-03-28T19:43:42.728Z,8.13
2023-03-28T19:46:19.778Z,9.80
2023-03-28T19:48:54.038Z,9.70
2023-03-28T19:51:26.687Z,10.30
2023-03-28T19:54:01.684Z,8.80
2023-03-28T19:56:36.650Z,8.93
2023-03-28T19:59:07.697Z,11.43
2023-03-28T20:01:39.048Z,11.20
2023-03-28T20:04:09.901Z,10.77
2023-03-28T20:06:40.621Z,9.37
2023-03-28T20:09:12.029Z,9.97
2023-03-28T20:11:43.847Z,9.80
2023-03-28T20:14:24.776Z,8.20
2023-03-28T20:16:57.902Z,8.47
2023-03-28T20:19:32.459Z,9.40
2023-03-28T20:22:03.198Z,5.97
2023-03-28T20:24:34.114Z,8.63
2023-03-28T20:27:06.428Z,8.80
2023-03-28T20:29:39.212Z,7.87
2023-03-28T20:32:13.568Z,8.67
2023-03-28T20:34:49.807Z,10.73
2023-03-28T20:37:20.493Z,7.50
2023-03-28T20:39:52.825Z,8.83
2023-03-28T20:42:24.575Z,10.17
2023-03-28T20:44:54.452Z,9.23
2023-03-28T20:47:26.114Z,9.50
2023-03-28T20:49:59.893Z,9.50
2023-03-28T20:52:30.086Z,10.40
2023-03-28T20:54:59.341Z,44.27
2023-03-28T20:57:30.548Z,54.87
2023-03-28T21:00:01.526Z,26.97
2023-03-28T21:02:34.006Z,15.50
2023-03-28T21:05:03.727Z,14.57
2023-03-28T21:07:33.372Z,15.33
2023-03-28T21:10:02.476Z,13.30
2023-03-28T21:12:33.079Z,14.20
2023-03-28T21:15:02.060Z,14.87
2023-03-28T21:17:30.953Z,13.20
2023-03-28T21:20:00.317Z,11.70
2023-03-28T21:22:29.954Z,9.70
2023-03-28T21:24:59.096Z,13.57
2023-03-28T21:27:30.644Z,13.63
2023-03-28T21:30:04.595Z,13.87
2023-03-28T21:32:35.071Z,8.37
2023-03-28T21:35:05.678Z,6.80
2023-03-28T21:37:34.701Z,6.30
2023-03-28T21:40:07.031Z,6.90
2023-03-28T21:42:37.413Z,8.10
2023-03-28T21:45:10.214Z,5.73
2023-03-28T21:47:41.837Z,6.97
2023-03-28T21:50:14.396Z,6.90
2023-03-28T21:52:43.895Z,7.10
2023-03-28T21:55:12.758Z,7.73
2023-03-28T21:57:41.639Z,8.20
2023-03-28T22:00:16.996Z,8.10
2023-03-28T22:02:46.375Z,8.60
2023-03-28T22:05:28.227Z,7.60
2023-03-28T22:07:58.627Z,8.87
2023-03-28T22:10:29.512Z,8.77
2023-03-28T22:12:59.710Z,8.47
2023-03-28T22:15:32.028Z,10.10
2023-03-28T22:18:00.993Z,11.30
2023-03-28T22:20:30.473Z,8.53
2023-03-28T22:23:01.282Z,9.37
2023-03-28T22:25:34.875Z,9.17
2023-03-28T22:28:05.079Z,9.97
2023-03-28T22:30:36.162Z,9.13
2023-03-28T22:33:05.283Z,9.67
2023-03-28T22:35:34.563Z,8.53
2023-03-28T22:38:03.691Z,8.90
2023-03-28T22:40:33.171Z,10.53
2023-03-28T22:43:03.433Z,10.00
2023-03-28T22:45:32.583Z,8.57
2023-03-28T22:48:03.509Z,9.87
2023-03-28T22:50:33.946Z,10.30
2023-03-28T22:53:02.869Z,9.73
2023-03-28T22:55:31.737Z,10.63
2023-03-28T22:58:00.498Z,8.80
2023-03-28T23:00:29.355Z,10.07
2023-03-28T23:02:58.436Z,10.23
2023-03-28T23:05:29.652Z,9.97
2023-03-28T23:08:00.229Z,9.20
2023-03-28T23:10:29.546Z,9.13
2023-03-28T23:12:58.489Z,10.10
2023-03-28T23:15:28.152Z,10.87
2023-03-28T23:17:58.311Z,9.27
2023-03-28T23:20:28.851Z,10.10
2023-03-28T23:22:57.716Z,10.50
2023-03-28T23:25:26.929Z,10.33
2023-03-28T23:27:56.277Z,10.77
2023-03-28T23:30:25.131Z,10.40
2023-03-28T23:32:54.034Z,10.60
2023-03-28T23:35:22.870Z,11.03
2023-03-28T23:37:53.687Z,10.97
2023-03-28T23:40:23.607Z,10.90
2023-03-28T23:42:52.476Z,11.00
2023-03-28T23:45:21.346Z,9.50
2023-03-28T23:47:50.251Z,11.10
2023-03-28T23:50:19.509Z,12.43
2023-03-28T23:52:48.431Z,10.27
2023-03-28T23:55:18.949Z,11.60
2023-03-28T23:57:48.285Z,11.20
